createdAt,value
2023-01-13T00:13:52.654Z,-50
2023-01-13T00:43:59.692Z,-51
2023-01-13T01:14:07.333Z,-51
2023-01-13T01:44:07.743Z,-50
2023-01-13T02:14:11.590Z,-50
2023-01-13T02:44:19.080Z,-51
2023-01-13T03:14:19.953Z,-51
2023-01-13T03:44:21.619Z,-50
2023-01-13T04:14:26.635Z,-52
2023-01-13T04:44:36.098Z,-51
2023-01-13T05:14:42.950Z,-51
2023-01-13T05:44:43.540Z,-50
2023-01-13T06:14:52.292Z,-50
2023-01-13T06:44:58.567Z,-51
2023-01-13T07:15:08.330Z,-51
2023-01-13T07:45:18.260Z,-51
2023-01-13T08:15:22.446Z,-51
2023-01-13T08:45:31.017Z,-51
2023-01-13T09:15:41.551Z,-49
2023-01-13T09:45:45.195Z,-51
2023-01-13T10:15:53.471Z,-52
2023-01-13T10:46:01.796Z,-53
2023-01-13T11:16:02.592Z,-51
2023-01-13T11:46:10.416Z,-47
2023-01-13T12:16:14.308Z,-48
2023-01-13T12:46:14.936Z,-49
2023-01-13T13:16:18.317Z,-47
2023-01-13T13:46:25.453Z,-49
2023-01-13T14:16:35.185Z,-49
2023-01-13T14:46:35.563Z,-49
2023-01-13T15:16:37.215Z,-49
2023-01-13T15:46:40.974Z,-48
2023-01-13T16:16:51.308Z,-49
2023-01-13T16:46:51.746Z,-49
2023-01-13T17:16:55.236Z,-49
2023-01-13T17:46:56.745Z,-47
2023-01-13T18:17:06.825Z,-47
2023-01-13T18:47:07.224Z,-49
2023-01-13T19:17:14.988Z,-48
2023-01-13T19:47:21.445Z,-48
2023-01-13T20:17:22.046Z,-48
2023-01-13T20:47:31.292Z,-49
2023-01-13T21:17:40.613Z,-49
2023-01-13T21:47:49.413Z,-48
2023-01-13T22:17:54.604Z,-48
2023-01-13T22:48:03.464Z,-46
2023-01-13T23:18:10.014Z,-48
2023-01-13T23:48:18.988Z,-48
